Time;durP1;ratioP1;P1;durP2;ratioP2;P2;SDS_P1;SDS_P2;PMS_P1;PMS_P2;Temp;Humidity;BMP_temperature;BMP_pressure;BME280_temperature;BME280_humidity;BME280_pressure;Samples;Min_cycle;Max_cycle;Signal;HPM_P1;HPM_P2
2022/08/26 00:01:37;;;;;;;7.22;4.28;;;22.60;99.90;;;;;;4995453;28;20022;-74
2022/08/26 00:04:03;;;;;;;7.63;4.22;;;22.60;99.90;;;;;;4977629;28;20125;-74
2022/08/26 00:06:31;;;;;;;5.28;4.22;;;22.60;99.90;;;;;;4995360;28;20058;-74
2022/08/26 00:08:57;;;;;;;9.68;4.60;;;22.60;99.90;;;;;;4994946;28;20034;-74
2022/08/26 00:11:23;;;;;;;7.25;3.97;;;22.60;99.90;;;;;;4995003;28;20109;-74
2022/08/26 00:13:48;;;;;;;5.65;4.40;;;22.60;99.90;;;;;;4994913;28;20423;-74
2022/08/26 00:16:14;;;;;;;4.38;3.97;;;22.60;99.90;;;;;;4995262;28;20030;-75
2022/08/26 00:18:40;;;;;;;8.18;4.35;;;22.60;99.90;;;;;;4994867;28;20030;-74
2022/08/26 00:21:07;;;;;;;13.82;5.20;;;22.60;99.90;;;;;;4994393;28;20047;-75
2022/08/26 00:23:33;;;;;;;5.07;3.90;;;22.60;99.90;;;;;;4994805;28;20452;-74
2022/08/26 00:26:00;;;;;;;8.82;4.15;;;22.60;99.90;;;;;;4994695;28;20033;-75
2022/08/26 00:28:25;;;;;;;6.65;4.05;;;22.50;99.90;;;;;;4995037;28;20030;-75
2022/08/26 00:30:51;;;;;;;5.65;3.72;;;22.50;99.90;;;;;;4994385;28;20457;-76
2022/08/26 00:33:18;;;;;;;6.25;4.25;;;22.50;99.90;;;;;;4994651;28;20110;-75
2022/08/26 00:35:45;;;;;;;6.05;3.85;;;22.50;99.90;;;;;;4996960;28;20102;-75
2022/08/26 00:38:11;;;;;;;5.82;4.18;;;22.50;99.90;;;;;;5014621;28;20076;-75
2022/08/26 00:40:44;;;;;;;8.60;4.85;;;22.50;99.90;;;;;;5013765;28;20084;-75
2022/08/26 00:43:11;;;;;;;6.75;4.13;;;22.50;99.90;;;;;;5013708;28;20533;-76
2022/08/26 00:45:49;;;;;;;6.90;4.25;;;22.50;99.90;;;;;;5014341;28;20026;-75
2022/08/26 00:48:20;;;;;;;6.50;3.90;;;22.40;99.90;;;;;;5014373;28;20045;-75
2022/08/26 00:51:00;;;;;;;5.63;3.83;;;22.50;99.90;;;;;;5013922;28;20430;-75
2022/08/26 00:53:29;;;;;;;6.30;3.95;;;22.40;99.90;;;;;;5014256;28;20030;-75
2022/08/26 00:56:02;;;;;;;8.93;3.88;;;22.40;99.90;;;;;;5013380;28;20120;-75
2022/08/26 00:58:31;;;;;;;5.05;3.85;;;22.40;99.90;;;;;;5013933;28;20463;-76
2022/08/26 01:00:57;;;;;;;5.43;3.85;;;22.40;99.90;;;;;;5013494;28;20029;-75
2022/08/26 01:03:24;;;;;;;6.40;4.22;;;22.40;99.90;;;;;;5014126;28;20032;-75
2022/08/26 01:05:57;;;;;;;6.82;3.70;;;22.30;99.90;;;;;;5013473;28;20026;-76
2022/08/26 01:08:24;;;;;;;9.65;3.65;;;22.30;99.90;;;;;;5013891;28;20096;-75
2022/08/26 01:10:51;;;;;;;6.13;3.95;;;22.30;99.90;;;;;;5013469;28;20419;-76
2022/08/26 01:13:17;;;;;;;7.20;4.68;;;22.30;99.90;;;;;;5013714;28;20030;-75
2022/08/26 01:15:48;;;;;;;4.97;3.63;;;22.20;99.90;;;;;;5013725;28;20033;-75
2022/08/26 01:18:14;;;;;;;7.40;4.35;;;22.30;99.90;;;;;;5013595;28;20075;-75
2022/08/26 01:20:54;;;;;;;5.38;3.35;;;22.20;99.90;;;;;;5013800;28;20132;-75
2022/08/26 01:23:20;;;;;;;5.60;3.60;;;22.20;99.90;;;;;;5013401;28;20038;-75
2022/08/26 01:25:53;;;;;;;4.65;3.63;;;22.20;99.90;;;;;;5013350;28;20030;-75
2022/08/26 01:28:24;;;;;;;5.22;3.50;;;22.20;99.90;;;;;;5013579;28;20084;-74
2022/08/26 01:30:51;;;;;;;;;;;22.20;99.90;;;;;;5013502;28;20025;-76
2022/08/26 01:33:22;;;;;;;7.13;3.67;;;22.10;99.90;;;;;;5013343;28;20063;-76
2022/08/26 01:35:49;;;;;;;6.50;3.65;;;22.10;99.90;;;;;;5013561;28;20041;-75
2022/08/26 01:38:14;;;;;;;4.90;3.70;;;22.00;99.90;;;;;;5013458;28;20123;-75
2022/08/26 01:40:42;;;;;;;7.18;3.75;;;22.00;99.90;;;;;;5013286;28;20474;-76
2022/08/26 01:43:13;;;;;;;6.13;3.60;;;22.00;99.90;;;;;;5012931;28;20486;-74
2022/08/26 01:45:40;;;;;;;4.05;3.53;;;21.90;99.90;;;;;;5013015;28;20026;-73
2022/08/26 01:48:10;;;;;;;4.28;3.85;;;22.00;99.90;;;;;;5012685;28;20042;-74
2022/08/26 01:50:37;;;;;;;7.00;3.80;;;22.00;99.90;;;;;;4999913;28;20554;-74
2022/08/26 01:53:09;;;;;;;7.43;4.40;;;21.90;99.90;;;;;;4992872;28;20037;-75
2022/08/26 01:55:38;;;;;;;4.22;3.63;;;21.90;99.90;;;;;;4993640;28;20042;-74
2022/08/26 01:58:08;;;;;;;5.95;4.15;;;21.90;99.90;;;;;;4992984;28;20026;-74
2022/08/26 02:00:35;;;;;;;3.80;3.45;;;21.90;99.90;;;;;;4993421;28;20127;-74
2022/08/26 02:03:15;;;;;;;6.47;3.85;;;21.90;99.90;;;;;;4993046;28;20080;-75
2022/08/26 02:05:47;;;;;;;4.20;3.53;;;21.90;99.90;;;;;;4993459;28;20057;-74
2022/08/26 02:08:13;;;;;;;12.45;4.38;;;21.90;99.90;;;;;;4992881;28;20089;-73
2022/08/26 02:10:40;;;;;;;6.28;3.70;;;21.80;99.90;;;;;;4993083;28;20468;-74
2022/08/26 02:13:07;;;;;;;5.07;3.42;;;21.90;99.90;;;;;;4992809;28;20459;-74
2022/08/26 02:15:33;;;;;;;4.63;3.42;;;21.80;99.90;;;;;;4993533;28;20084;-74
2022/08/26 02:18:01;;;;;;;5.88;3.95;;;21.80;99.90;;;;;;4992794;28;20033;-74
2022/08/26 02:20:28;;;;;;;5.38;3.63;;;21.80;99.90;;;;;;4992721;28;20115;-74
2022/08/26 02:22:54;;;;;;;7.18;3.85;;;21.80;99.90;;;;;;4992749;28;20369;-74
2022/08/26 02:25:25;;;;;;;9.02;3.85;;;21.80;99.90;;;;;;4993167;28;20030;-74
2022/08/26 02:27:52;;;;;;;6.15;3.95;;;21.70;99.90;;;;;;4993584;28;20109;-74
2022/08/26 02:30:25;;;;;;;6.97;4.43;;;21.70;99.90;;;;;;4992626;28;20038;-74
2022/08/26 02:32:51;;;;;;;5.07;3.45;;;21.70;99.90;;;;;;4993213;28;20026;-74
2022/08/26 02:35:19;;;;;;;5.43;3.58;;;21.60;99.90;;;;;;4992565;28;20142;-74
2022/08/26 02:37:46;;;;;;;6.65;3.60;;;21.60;99.90;;;;;;4992748;28;20030;-74
2022/08/26 02:40:14;;;;;;;7.47;3.72;;;21.60;99.90;;;;;;4992535;28;20045;-74
2022/08/26 02:42:40;;;;;;;4.50;3.65;;;21.50;99.90;;;;;;4992866;28;20033;-73
2022/08/26 02:45:07;;;;;;;8.25;4.05;;;21.50;99.90;;;;;;4992904;28;20377;-74
2022/08/26 02:47:33;;;;;;;5.82;3.60;;;21.50;99.90;;;;;;5011280;28;20030;-74
2022/08/26 02:49:59;;;;;;;7.10;4.03;;;21.50;99.90;;;;;;5012121;28;20034;-74
2022/08/26 02:52:25;;;;;;;4.70;3.42;;;21.50;99.90;;;;;;5012579;28;20413;-73
2022/08/26 02:54:51;;;;;;;5.82;4.00;;;21.50;99.90;;;;;;5012817;28;20091;-74
2022/08/26 02:57:17;;;;;;;5.75;3.78;;;21.50;99.90;;;;;;5011861;28;20037;-74
2022/08/26 02:59:43;;;;;;;5.78;4.00;;;21.40;99.90;;;;;;5012344;28;20088;-75
2022/08/26 03:02:09;;;;;;;6.45;3.92;;;21.40;99.90;;;;;;5012275;28;20030;-75
2022/08/26 03:04:36;;;;;;;5.63;4.10;;;21.40;99.90;;;;;;5013368;28;20038;-75
2022/08/26 03:07:03;;;;;;;5.45;3.30;;;21.40;99.90;;;;;;5015796;28;20033;-74
2022/08/26 03:09:28;;;;;;;6.25;4.07;;;21.40;99.90;;;;;;5016106;28;20029;-74
2022/08/26 03:11:54;;;;;;;5.53;3.80;;;21.40;99.90;;;;;;5016126;28;20473;-74
2022/08/26 03:14:22;;;;;;;5.50;3.97;;;21.40;99.90;;;;;;5015686;28;20026;-74
2022/08/26 03:16:50;;;;;;;5.18;3.88;;;21.40;99.90;;;;;;5015850;28;20030;-74
2022/08/26 03:19:16;;;;;;;7.20;4.10;;;21.40;99.90;;;;;;5015097;28;20117;-75
2022/08/26 03:21:42;;;;;;;6.20;4.05;;;21.40;99.90;;;;;;5015984;28;20025;-74
2022/08/26 03:24:10;;;;;;;7.18;4.68;;;21.40;99.90;;;;;;5015464;28;20030;-74
2022/08/26 03:26:35;;;;;;;4.68;3.70;;;21.40;99.90;;;;;;5016057;28;20105;-74
2022/08/26 03:31:45;;;;;;;6.20;3.80;;;21.30;99.90;;;;;;5015808;28;20113;-74
2022/08/26 03:34:11;;;;;;;5.10;4.00;;;21.30;99.90;;;;;;5015287;28;20495;-76
2022/08/26 03:36:37;;;;;;;5.82;4.20;;;21.20;99.90;;;;;;5015565;28;20034;-74
2022/08/26 03:39:04;;;;;;;5.05;4.13;;;21.20;99.90;;;;;;5015197;28;20412;-76
2022/08/26 03:41:31;;;;;;;6.50;4.38;;;21.20;99.90;;;;;;5015236;28;20069;-75
2022/08/26 03:43:57;;;;;;;6.57;4.82;;;21.20;99.90;;;;;;4998201;28;20026;-75
2022/08/26 03:46:22;;;;;;;8.32;4.95;;;21.30;99.90;;;;;;5015093;28;20109;-75
2022/08/26 03:48:48;;;;;;;6.05;4.05;;;21.30;99.90;;;;;;5015348;28;20438;-75
2022/08/26 03:51:16;;;;;;;6.35;4.47;;;21.30;99.90;;;;;;5001004;28;20084;-76
2022/08/26 03:53:42;;;;;;;5.05;4.03;;;21.30;99.90;;;;;;4995808;28;20105;-74
2022/08/26 03:56:08;;;;;;;6.82;4.25;;;21.30;99.90;;;;;;4994980;28;20034;-74
2022/08/26 03:58:35;;;;;;;7.13;4.53;;;21.30;99.90;;;;;;4995500;28;20030;-74
2022/08/26 04:01:00;;;;;;;5.90;4.07;;;21.30;99.90;;;;;;4994740;28;20069;-75
2022/08/26 04:06:11;;;;;;;4.82;3.85;;;21.30;99.90;;;;;;4994910;28;20037;-75
2022/08/26 04:08:37;;;;;;;5.95;4.32;;;21.30;99.90;;;;;;4995542;28;20037;-75
2022/08/26 04:11:04;;;;;;;7.95;4.53;;;21.30;99.90;;;;;;4995011;28;20026;-76
2022/08/26 04:13:29;;;;;;;5.05;4.05;;;21.20;99.90;;;;;;4995368;28;20022;-75
2022/08/26 04:15:55;;;;;;;6.00;4.32;;;21.20;99.90;;;;;;4995066;28;20395;-75
2022/08/26 04:18:21;;;;;;;6.63;4.38;;;21.20;99.90;;;;;;4994726;28;20206;-75
2022/08/26 04:20:48;;;;;;;8.13;4.45;;;21.20;99.90;;;;;;4995305;28;20149;-75
2022/08/26 04:23:15;;;;;;;7.00;4.85;;;21.20;99.90;;;;;;4994750;28;20029;-75
2022/08/26 04:25:41;;;;;;;8.40;4.22;;;21.20;99.90;;;;;;4995080;28;20033;-75
2022/08/26 04:28:08;;;;;;;7.25;4.38;;;21.20;99.90;;;;;;4994753;28;20037;-75
2022/08/26 04:30:36;;;;;;;6.65;4.43;;;21.20;99.90;;;;;;4995024;28;20037;-75
2022/08/26 04:33:03;;;;;;;7.57;4.72;;;21.20;99.90;;;;;;4994504;28;20034;-77
2022/08/26 04:35:29;;;;;;;6.03;4.10;;;21.30;99.90;;;;;;4995033;28;20022;-74
2022/08/26 04:37:55;;;;;;;7.00;4.65;;;21.20;99.90;;;;;;4994904;28;20030;-74
2022/08/26 04:40:21;;;;;;;5.88;3.85;;;21.30;99.90;;;;;;4994335;28;20043;-75
2022/08/26 04:42:47;;;;;;;8.10;4.25;;;21.30;99.90;;;;;;4994848;28;20038;-74
2022/08/26 04:45:13;;;;;;;6.72;4.53;;;21.30;99.90;;;;;;4994123;28;20046;-76
2022/08/26 04:47:39;;;;;;;6.30;4.45;;;21.30;99.90;;;;;;4994710;28;20081;-73
2022/08/26 04:50:06;;;;;;;5.40;3.83;;;21.30;99.90;;;;;;4994326;28;20067;-75
2022/08/26 04:52:32;;;;;;;6.70;4.28;;;21.40;99.90;;;;;;4994711;28;20499;-73
2022/08/26 04:54:58;;;;;;;7.25;4.53;;;21.40;99.90;;;;;;4995117;28;20069;-75
2022/08/26 04:57:24;;;;;;;5.40;4.07;;;21.40;99.90;;;;;;4994171;28;20062;-75
2022/08/26 04:59:49;;;;;;;6.80;4.55;;;21.40;99.90;;;;;;4994223;28;20061;-76
2022/08/26 05:02:15;;;;;;;6.18;4.30;;;21.40;99.90;;;;;;4994024;28;20077;-76
2022/08/26 05:04:42;;;;;;;8.57;4.65;;;21.40;99.90;;;;;;4994137;28;20076;-76
2022/08/26 05:07:09;;;;;;;7.75;5.05;;;21.40;99.90;;;;;;4993823;28;20034;-76
2022/08/26 05:09:36;;;;;;;8.75;4.65;;;21.40;99.90;;;;;;4994231;28;20037;-76
2022/08/26 05:12:02;;;;;;;8.32;4.88;;;21.50;99.90;;;;;;4994235;28;20022;-75
2022/08/26 05:14:27;;;;;;;7.45;4.55;;;21.50;99.90;;;;;;4994185;28;20037;-75
2022/08/26 05:16:53;;;;;;;9.13;5.05;;;21.50;99.90;;;;;;4994241;28;20483;-75
2022/08/26 05:19:19;;;;;;;7.47;5.18;;;21.50;99.90;;;;;;4993553;28;21101;-75
2022/08/26 05:21:45;;;;;;;6.70;4.57;;;21.50;99.90;;;;;;4993760;28;20058;-75
2022/08/26 05:24:11;;;;;;;8.85;4.72;;;21.60;99.90;;;;;;4993629;28;20034;-76
2022/08/26 05:26:37;;;;;;;8.55;4.88;;;21.60;99.90;;;;;;4993872;28;20027;-75
2022/08/26 05:29:04;;;;;;;10.48;5.68;;;21.60;99.90;;;;;;4993603;28;20053;-75
2022/08/26 05:31:31;;;;;;;6.80;5.07;;;21.70;99.90;;;;;;4993409;28;20023;-75
2022/08/26 05:33:59;;;;;;;7.20;5.30;;;21.70;99.90;;;;;;4993756;28;20093;-75
2022/08/26 05:36:26;;;;;;;11.52;5.68;;;21.80;99.90;;;;;;4993238;28;20037;-75
2022/08/26 05:38:52;;;;;;;9.10;5.38;;;21.90;99.90;;;;;;4993644;28;20121;-74
2022/08/26 05:41:27;;;;;;;7.30;5.45;;;21.90;99.90;;;;;;4993055;28;20478;-74
2022/08/26 05:43:56;;;;;;;11.57;5.28;;;22.00;99.90;;;;;;4994026;28;20035;-74
2022/08/26 05:46:22;;;;;;;8.85;5.75;;;22.00;99.90;;;;;;4993108;28;20035;-74
2022/08/26 05:48:48;;;;;;;9.27;5.82;;;22.10;99.90;;;;;;4993564;28;20034;-73
2022/08/26 05:51:14;;;;;;;11.98;6.88;;;22.20;99.90;;;;;;4992774;28;20037;-74
2022/08/26 05:53:40;;;;;;;8.82;6.25;;;22.20;99.90;;;;;;4993440;28;20109;-74
2022/08/26 05:56:08;;;;;;;9.07;5.85;;;22.30;99.90;;;;;;4995722;28;20054;-74
2022/08/26 05:58:35;;;;;;;12.70;5.82;;;22.50;99.90;;;;;;4993339;28;20110;-74
2022/08/26 06:01:04;;;;;;;11.55;5.68;;;22.60;99.90;;;;;;4993473;28;20027;-74
2022/08/26 06:03:32;;;;;;;12.70;7.25;;;22.80;99.90;;;;;;4992791;28;20030;-75
2022/08/26 06:05:58;;;;;;;15.75;7.00;;;23.10;99.90;;;;;;4993236;28;20113;-75
2022/08/26 06:08:23;;;;;;;8.00;5.32;;;23.30;99.90;;;;;;4992783;28;20487;-74
2022/08/26 06:11:00;;;;;;;10.57;6.05;;;23.60;99.90;;;;;;4993188;28;20030;-74
2022/08/26 06:13:26;;;;;;;10.18;5.80;;;23.80;99.90;;;;;;4992609;28;20042;-75
2022/08/26 06:15:54;;;;;;;11.35;6.32;;;24.00;99.90;;;;;;4993214;28;20045;-75
2022/08/26 06:18:31;;;;;;;10.50;6.40;;;24.30;99.90;;;;;;4992318;28;20109;-75
2022/08/26 06:20:58;;;;;;;11.60;6.65;;;24.50;99.90;;;;;;4992664;28;20061;-75
2022/08/26 06:26:10;;;;;;;13.10;6.35;;;24.90;99.10;;;;;;4992986;28;20032;-75
2022/08/26 06:28:35;;;;;;;9.30;6.13;;;25.20;98.20;;;;;;4993030;28;20026;-75
2022/08/26 06:31:02;;;;;;;10.85;6.43;;;25.40;98.10;;;;;;4992786;28;20022;-74
2022/08/26 06:33:28;;;;;;;10.50;5.90;;;25.60;97.40;;;;;;4992686;28;20030;-75
2022/08/26 06:35:54;;;;;;;11.75;6.43;;;25.80;96.50;;;;;;4993104;28;20023;-75
2022/08/26 06:38:20;;;;;;;12.25;6.50;;;26.00;96.10;;;;;;4992580;28;20031;-75
2022/08/26 06:40:48;;;;;;;12.30;6.85;;;26.20;94.40;;;;;;4995901;28;20049;-74
2022/08/26 06:43:16;;;;;;;9.15;6.65;;;26.50;94.00;;;;;;4996242;28;20029;-74
2022/08/26 06:45:44;;;;;;;11.60;7.38;;;26.70;93.10;;;;;;4996717;28;20092;-74
2022/08/26 06:48:12;;;;;;;12.82;6.72;;;27.00;92.60;;;;;;4996514;28;20030;-74
2022/08/26 06:50:38;;;;;;;10.65;7.25;;;27.10;91.70;;;;;;4996608;28;20105;-73
2022/08/26 06:53:04;;;;;;;12.30;7.13;;;27.40;91.10;;;;;;4996673;28;20030;-74
2022/08/26 06:55:30;;;;;;;9.50;6.30;;;27.70;90.40;;;;;;4996410;28;20034;-75
2022/08/26 06:57:57;;;;;;;14.20;6.47;;;28.10;88.30;;;;;;5009726;28;20050;-74
2022/08/26 07:00:23;;;;;;;11.13;6.55;;;28.50;88.50;;;;;;5015610;28;20041;-73
2022/08/26 07:02:49;;;;;;;12.10;6.88;;;29.00;83.50;;;;;;5015990;28;20040;-73
2022/08/26 07:05:14;;;;;;;10.23;6.32;;;29.30;82.50;;;;;;5015778;28;20030;-74
2022/08/26 07:07:40;;;;;;;13.18;6.40;;;29.80;80.90;;;;;;5015956;28;20030;-74
2022/08/26 07:10:07;;;;;;;12.93;7.25;;;30.30;75.90;;;;;;5015984;28;20026;-74
2022/08/26 07:12:34;;;;;;;12.07;6.53;;;30.90;73.00;;;;;;5015359;28;20034;-74
2022/08/26 07:15:00;;;;;;;12.82;6.72;;;31.80;71.50;;;;;;5015914;28;20033;-74
2022/08/26 07:17:26;;;;;;;15.20;7.28;;;32.70;68.00;;;;;;5015543;28;20026;-74
2022/08/26 07:19:52;;;;;;;11.50;6.35;;;33.50;63.70;;;;;;5015689;28;20089;-73
2022/08/26 07:22:18;;;;;;;11.13;6.45;;;34.20;62.50;;;;;;5015576;28;20021;-74
2022/08/26 07:24:44;;;;;;;10.70;6.57;;;34.80;59.10;;;;;;5015556;28;20033;-73
2022/08/26 07:27:14;;;;;;;9.10;6.13;;;35.30;57.50;;;;;;5015402;28;20451;-73
2022/08/26 07:29:41;;;;;;;18.80;6.47;;;35.90;57.00;;;;;;5015764;28;20096;-75
2022/08/26 07:32:08;;;;;;;11.80;6.10;;;36.40;54.70;;;;;;5015543;28;20034;-74
2022/08/26 07:34:36;;;;;;;13.05;5.07;;;36.80;53.60;;;;;;5015235;28;20426;-74
2022/08/26 07:37:02;;;;;;;10.00;5.10;;;37.30;52.00;;;;;;5015221;28;20482;-74
2022/08/26 07:39:29;;;;;;;10.57;5.28;;;37.60;50.60;;;;;;4997425;28;20038;-74
2022/08/26 07:41:55;;;;;;;9.07;5.53;;;38.00;50.00;;;;;;5015473;28;20053;-74
2022/08/26 07:44:20;;;;;;;7.25;4.68;;;38.40;48.70;;;;;;4997400;28;20022;-75
2022/08/26 07:46:46;;;;;;;9.65;5.20;;;38.70;48.10;;;;;;5015428;28;20030;-74
2022/08/26 07:49:12;;;;;;;8.55;5.32;;;39.00;48.00;;;;;;5015408;28;20436;-74
2022/08/26 07:51:38;;;;;;;10.90;5.28;;;39.10;46.30;;;;;;5014054;28;20469;-74
2022/08/26 07:54:04;;;;;;;9.10;5.10;;;39.50;44.90;;;;;;5015042;28;20149;-74
2022/08/26 07:56:30;;;;;;;7.57;4.43;;;39.90;45.40;;;;;;5015053;28;20105;-74
2022/08/26 07:58:56;;;;;;;7.72;4.97;;;40.20;43.30;;;;;;5014679;28;20033;-74
2022/08/26 08:01:24;;;;;;;8.57;5.00;;;40.50;42.70;;;;;;5014165;28;20034;-74
2022/08/26 08:03:52;;;;;;;10.50;4.85;;;40.70;42.00;;;;;;5011887;28;20038;-74
2022/08/26 08:06:24;;;;;;;5.57;4.35;;;40.90;42.40;;;;;;5014871;28;20032;-78
2022/08/26 08:08:50;;;;;;;7.47;5.07;;;40.60;41.60;;;;;;5014947;28;20026;-74
2022/08/26 08:11:19;;;;;;;9.18;5.05;;;40.30;42.00;;;;;;5014885;28;20049;-74
2022/08/26 08:13:45;;;;;;;6.80;5.20;;;40.50;41.40;;;;;;5014933;28;20049;-73
2022/08/26 08:16:11;;;;;;;8.30;5.50;;;41.20;41.60;;;;;;5014862;28;20029;-74
2022/08/26 08:18:36;;;;;;;6.03;4.38;;;41.90;40.70;;;;;;4996644;28;20025;-74
2022/08/26 08:21:03;;;;;;;7.13;4.68;;;42.30;40.00;;;;;;5014723;28;20129;-75
2022/08/26 08:23:30;;;;;;;11.20;4.88;;;42.70;39.00;;;;;;4996651;28;20034;-74
2022/08/26 08:26:04;;;;;;;5.75;4.43;;;42.90;39.20;;;;;;5014504;28;20069;-75
2022/08/26 08:28:29;;;;;;;7.43;4.38;;;42.20;38.60;;;;;;5014002;28;20074;-75
2022/08/26 08:30:56;;;;;;;6.30;4.43;;;42.00;38.30;;;;;;5014389;28;20065;-74
2022/08/26 08:33:22;;;;;;;7.72;4.18;;;41.60;39.10;;;;;;5013869;28;20107;-74
2022/08/26 08:35:48;;;;;;;8.35;4.40;;;41.20;38.80;;;;;;5014444;28;20026;-74
2022/08/26 08:38:14;;;;;;;7.38;4.38;;;41.50;39.00;;;;;;5014038;28;20026;-75
2022/08/26 08:40:42;;;;;;;7.00;4.00;;;41.70;39.30;;;;;;5013485;28;20456;-74
2022/08/26 08:43:10;;;;;;;7.47;4.30;;;41.60;39.20;;;;;;5013887;28;20037;-75
2022/08/26 08:45:38;;;;;;;7.20;5.03;;;41.10;39.90;;;;;;5013849;28;20030;-75
2022/08/26 08:48:18;;;;;;;6.55;4.13;;;40.00;40.20;;;;;;5014256;28;20027;-74
2022/08/26 08:50:55;;;;;;;9.60;4.50;;;39.30;41.20;;;;;;4996247;28;20398;-74
2022/08/26 08:53:36;;;;;;;4.95;4.15;;;39.30;41.00;;;;;;5014234;28;20112;-76
2022/08/26 08:56:19;;;;;;;6.75;4.65;;;39.30;41.80;;;;;;4996492;28;20383;-74
2022/08/26 08:59:02;;;;;;;8.40;5.05;;;39.20;41.70;;;;;;5013604;28;20223;-74
2022/08/26 09:01:46;;;;;;;8.93;4.63;;;39.20;41.90;;;;;;5009798;28;20030;-73
2022/08/26 09:04:31;;;;;;;10.13;5.25;;;38.80;43.00;;;;;;5013655;28;20026;-74
2022/08/26 09:07:00;;;;;;;8.68;6.00;;;38.50;42.80;;;;;;5013922;28;20471;-74
2022/08/26 09:09:40;;;;;;;11.07;4.95;;;37.80;43.80;;;;;;5013453;28;20033;-75
2022/08/26 09:12:12;;;;;;;8.45;4.82;;;37.20;44.80;;;;;;5013565;28;20415;-75
2022/08/26 09:14:37;;;;;;;9.52;4.82;;;36.50;45.20;;;;;;5013370;28;20022;-75
2022/08/26 09:17:22;;;;;;;13.15;4.88;;;35.90;46.40;;;;;;5013699;28;20037;-75
2022/08/26 09:19:52;;;;;;;8.75;4.32;;;35.70;47.00;;;;;;5012854;28;20049;-75
2022/08/26 09:22:33;;;;;;;8.25;4.65;;;35.30;47.70;;;;;;4996150;28;20037;-75
2022/08/26 09:25:00;;;;;;;8.48;4.28;;;34.60;47.60;;;;;;5013472;28;20026;-73
2022/08/26 09:27:55;;;;;;;7.28;4.57;;;34.00;49.30;;;;;;5012943;28;20062;-75
2022/08/26 09:30:28;;;;;;;10.23;3.90;;;33.90;49.60;;;;;;4974963;28;20545;-75
2022/08/26 09:33:01;;;;;;;7.20;3.92;;;33.80;49.30;;;;;;5013483;28;20474;-74
2022/08/26 09:35:34;;;;;;;7.70;3.70;;;33.50;49.50;;;;;;5012608;28;20420;-74
2022/08/26 09:38:00;;;;;;;5.53;3.97;;;33.40;51.40;;;;;;5012884;28;20416;-75
2022/08/26 09:40:32;;;;;;;7.15;3.78;;;33.30;50.90;;;;;;5012638;28;20040;-74
2022/08/26 09:43:14;;;;;;;6.97;4.32;;;33.20;50.80;;;;;;5013364;28;20030;-73
2022/08/26 09:45:44;;;;;;;5.93;3.60;;;33.20;51.40;;;;;;5012623;28;20442;-74
2022/08/26 09:48:10;;;;;;;6.15;3.95;;;33.10;51.00;;;;;;5013181;28;20399;-74
2022/08/26 09:50:39;;;;;;;7.53;3.85;;;33.10;51.20;;;;;;5012738;28;20061;-74
2022/08/26 09:53:11;;;;;;;4.53;3.88;;;33.20;51.80;;;;;;5013189;28;20217;-74
2022/08/26 09:55:40;;;;;;;6.88;4.45;;;33.20;51.00;;;;;;5012477;28;20073;-74
2022/08/26 09:58:08;;;;;;;7.97;3.73;;;32.90;49.40;;;;;;5013032;28;20079;-73
2022/08/26 10:00:38;;;;;;;5.95;3.42;;;32.90;50.40;;;;;;5012600;28;20030;-73
2022/08/26 10:03:10;;;;;;;5.93;3.72;;;32.80;51.00;;;;;;5013026;28;20037;-73
2022/08/26 10:05:39;;;;;;;9.32;4.40;;;32.90;51.30;;;;;;5012593;28;20038;-73
2022/08/26 10:08:23;;;;;;;8.35;3.90;;;32.90;50.40;;;;;;5003725;28;20463;-75
2022/08/26 10:10:50;;;;;;;5.22;3.78;;;32.90;50.60;;;;;;4992961;28;20034;-74
2022/08/26 10:13:31;;;;;;;5.90;4.03;;;33.00;51.50;;;;;;4993118;28;20399;-75
2022/08/26 10:16:02;;;;;;;7.63;4.40;;;33.10;51.20;;;;;;4993219;28;20037;-73
2022/08/26 10:18:35;;;;;;;6.25;3.80;;;33.10;50.90;;;;;;4992620;28;20038;-77
2022/08/26 10:21:18;;;;;;;9.18;4.00;;;33.10;50.80;;;;;;4993187;28;20499;-74
2022/08/26 10:23:49;;;;;;;5.47;4.22;;;33.30;50.90;;;;;;4992943;28;20030;-75
2022/08/26 10:26:33;;;;;;;9.10;4.82;;;33.40;50.40;;;;;;4993088;28;20033;-74
2022/08/26 10:29:41;;;;;;;7.25;4.57;;;33.40;50.70;;;;;;4993315;28;20038;-73
2022/08/26 10:32:35;;;;;;;7.57;4.60;;;33.40;49.80;;;;;;4992885;28;20064;-74
2022/08/26 10:35:02;;;;;;;9.85;4.80;;;33.40;50.60;;;;;;4993106;28;20026;-73
2022/08/26 10:37:45;;;;;;;6.75;3.95;;;33.50;49.90;;;;;;4992727;28;20027;-73
2022/08/26 10:40:48;;;;;;;8.45;4.50;;;33.50;50.00;;;;;;4992711;28;20424;-73
2022/08/26 10:43:22;;;;;;;7.70;4.97;;;33.40;49.60;;;;;;4991180;28;20082;-74
2022/08/26 10:45:51;;;;;;;10.10;4.80;;;33.30;50.10;;;;;;4992586;28;20034;-74
2022/08/26 10:48:48;;;;;;;9.13;4.90;;;33.30;50.40;;;;;;4975589;28;20447;-74
2022/08/26 10:51:24;;;;;;;6.22;4.35;;;33.20;50.50;;;;;;4965238;28;20046;-74
2022/08/26 10:53:54;;;;;;;8.75;5.13;;;33.20;51.20;;;;;;4992127;28;20026;-74
2022/08/26 10:56:51;;;;;;;10.45;4.90;;;33.20;51.40;;;;;;4992739;28;20109;-74
2022/08/26 10:59:42;;;;;;;8.52;4.82;;;33.20;50.90;;;;;;4965666;28;20046;-74
2022/08/26 11:02:17;;;;;;;10.55;4.82;;;33.10;50.80;;;;;;4992852;28;20041;-74
2022/08/26 11:05:02;;;;;;;9.50;4.85;;;33.10;51.40;;;;;;4992330;28;20027;-74
2022/08/26 11:07:43;;;;;;;9.95;5.15;;;33.20;52.20;;;;;;5008268;28;20029;-74
2022/08/26 11:10:13;;;;;;;9.48;4.65;;;33.20;50.90;;;;;;5012130;28;20041;-73
2022/08/26 11:12:40;;;;;;;11.35;5.38;;;33.20;51.30;;;;;;5011853;28;20109;-75
2022/08/26 11:15:19;;;;;;;7.47;4.72;;;33.30;51.20;;;;;;5012344;28;20030;-75
2022/08/26 11:17:44;;;;;;;10.63;5.22;;;33.20;51.90;;;;;;5011735;28;20022;-74
2022/08/26 11:20:10;;;;;;;10.20;4.80;;;33.10;51.50;;;;;;5011786;28;20058;-73
2022/08/26 11:22:37;;;;;;;6.25;4.30;;;33.20;52.10;;;;;;5011566;28;20032;-75
2022/08/26 11:25:13;;;;;;;6.18;4.00;;;33.20;50.80;;;;;;4994576;28;20034;-74
2022/08/26 11:27:40;;;;;;;5.88;3.53;;;33.30;51.50;;;;;;5015238;28;20033;-74
2022/08/26 11:30:11;;;;;;;6.65;3.75;;;33.30;51.40;;;;;;5015510;28;20069;-74
2022/08/26 11:32:37;;;;;;;10.30;4.20;;;33.40;51.60;;;;;;4997676;28;20033;-75
2022/08/26 11:35:10;;;;;;;5.72;3.85;;;33.50;50.80;;;;;;5015827;28;20104;-75
2022/08/26 11:37:55;;;;;;;7.78;3.67;;;33.50;49.00;;;;;;5015450;28;20382;-75
2022/08/26 11:40:25;;;;;;;6.07;3.90;;;33.60;49.70;;;;;;4998258;28;20026;-75
2022/08/26 11:43:19;;;;;;;10.23;3.40;;;33.50;48.40;;;;;;5015445;28;20033;-76
2022/08/26 11:45:47;;;;;;;7.50;4.45;;;33.50;48.80;;;;;;4994553;28;20049;-74
2022/08/26 11:48:18;;;;;;;8.40;4.35;;;33.50;49.50;;;;;;5015751;28;20105;-75
2022/08/26 11:50:59;;;;;;;9.27;4.25;;;33.40;49.30;;;;;;4997898;28;20442;-74
2022/08/26 11:53:25;;;;;;;;;;;33.40;49.00;;;;;;5016099;28;20382;-76
2022/08/26 11:55:53;;;;;;;6.10;3.67;;;33.40;49.70;;;;;;5015479;28;20309;-74
2022/08/26 11:58:22;;;;;;;8.88;4.53;;;33.40;50.20;;;;;;5016124;28;20030;-76
2022/08/26 12:00:53;;;;;;;4.95;4.18;;;33.30;49.50;;;;;;5015030;28;20040;-76
2022/08/26 12:03:29;;;;;;;5.90;4.18;;;33.40;49.10;;;;;;4998596;28;20056;-75
2022/08/26 12:05:56;;;;;;;7.25;4.05;;;33.40;49.80;;;;;;5012841;28;20031;-74
2022/08/26 12:08:29;;;;;;;6.72;3.85;;;33.40;49.70;;;;;;5015293;28;20073;-76
2022/08/26 12:11:08;;;;;;;6.50;4.03;;;33.50;49.40;;;;;;5014777;28;20181;-76
2022/08/26 12:13:35;;;;;;;7.95;3.60;;;33.50;49.50;;;;;;5014949;28;20033;-74
2022/08/26 12:16:01;;;;;;;10.80;4.43;;;33.40;48.70;;;;;;5014966;28;20037;-74
2022/08/26 12:18:33;;;;;;;7.80;4.20;;;33.30;48.80;;;;;;5015610;28;20088;-76
2022/08/26 12:21:11;;;;;;;10.13;4.32;;;33.30;50.00;;;;;;5014432;28;20058;-74
2022/08/26 12:23:45;;;;;;;6.13;3.92;;;33.30;50.20;;;;;;5014570;28;20488;-75
2022/08/26 12:26:28;;;;;;;6.45;3.78;;;33.20;49.40;;;;;;5015054;28;20033;-75
2022/08/26 12:28:53;;;;;;;6.13;3.33;;;33.20;48.70;;;;;;5014278;28;20026;-74
2022/08/26 12:31:23;;;;;;;6.10;3.10;;;33.10;48.60;;;;;;5014665;28;20097;-75
2022/08/26 12:33:49;;;;;;;7.38;3.50;;;33.00;46.90;;;;;;5014071;28;20121;-74
2022/08/26 12:36:28;;;;;;;5.28;2.75;;;33.00;46.00;;;;;;5014111;28;20110;-73
2022/08/26 12:38:54;;;;;;;5.07;2.58;;;32.90;45.90;;;;;;5013729;28;20040;-73
2022/08/26 12:41:42;;;;;;;5.45;3.05;;;32.80;45.80;;;;;;5014371;28;20058;-73
2022/08/26 12:44:28;;;;;;;7.53;3.20;;;32.70;46.50;;;;;;5014363;28;20045;-74
2022/08/26 12:47:01;;;;;;;6.25;3.00;;;32.60;47.80;;;;;;5013497;28;20113;-74
2022/08/26 12:49:27;;;;;;;8.88;3.30;;;32.60;47.80;;;;;;5014190;28;20034;-74
2022/08/26 12:51:52;;;;;;;6.28;2.78;;;32.40;47.00;;;;;;5013999;28;20029;-74
2022/08/26 12:54:57;;;;;;;9.23;3.63;;;32.40;47.70;;;;;;5014316;28;20022;-75
2022/08/26 12:57:12;;;;;;;8.70;3.67;;;32.40;48.20;;;;;;5010971;28;20463;-74
2022/08/26 12:59:38;;;;;;;5.03;2.90;;;32.30;47.50;;;;;;4976835;28;20100;-74
2022/08/26 13:02:04;;;;;;;4.45;2.80;;;32.20;47.50;;;;;;4994483;28;20026;-74
2022/08/26 13:04:40;;;;;;;6.15;3.53;;;32.10;47.60;;;;;;4994264;28;20072;-74
2022/08/26 13:07:12;;;;;;;5.45;3.00;;;32.10;47.60;;;;;;4994432;28;20132;-74